createdAt,value
2023-02-20T00:00:36.848Z,6.82
2023-02-20T00:03:03.406Z,6.38
2023-02-20T00:05:29.996Z,7.30
2023-02-20T00:07:56.468Z,6.72
2023-02-20T00:10:24.184Z,7.15
2023-02-20T00:12:51.264Z,6.75
2023-02-20T00:15:22.096Z,6.43
2023-02-20T00:17:49.049Z,6.40
2023-02-20T00:20:18.083Z,6.93
2023-02-20T00:22:44.482Z,6.57
2023-02-20T00:25:13.434Z,7.47
2023-02-20T00:27:39.910Z,7.88
2023-02-20T00:30:07.525Z,8.43
2023-02-20T00:32:33.891Z,8.00
2023-02-20T00:35:00.320Z,8.10
2023-02-20T00:37:26.822Z,7.90
2023-02-20T00:39:53.171Z,7.97
2023-02-20T00:42:19.577Z,7.55
2023-02-20T00:44:45.913Z,7.72
2023-02-20T00:47:12.336Z,7.63
2023-02-20T00:49:38.694Z,7.35
2023-02-20T00:52:05.131Z,7.53
2023-02-20T00:54:31.533Z,6.95
2023-02-20T00:56:58.090Z,6.68
2023-02-20T00:59:24.435Z,6.72
2023-02-20T01:01:51.160Z,6.70
2023-02-20T01:04:17.614Z,7.45
2023-02-20T01:06:44.919Z,7.05
2023-02-20T01:09:11.924Z,6.50
2023-02-20T01:11:38.255Z,6.88
2023-02-20T01:14:04.915Z,6.45
2023-02-20T01:16:31.575Z,6.30
2023-02-20T01:18:58.050Z,6.18
2023-02-20T01:21:24.374Z,6.57
2023-02-20T01:23:50.884Z,6.50
2023-02-20T01:26:17.421Z,6.60
2023-02-20T01:28:45.427Z,7.13
2023-02-20T01:31:11.979Z,6.88
2023-02-20T01:33:40.812Z,7.22
2023-02-20T01:36:08.566Z,6.63
2023-02-20T01:38:34.929Z,6.40
2023-02-20T01:41:01.349Z,5.65
2023-02-20T01:43:27.832Z,5.57
2023-02-20T01:45:54.239Z,6.55
2023-02-20T01:48:24.632Z,6.00
2023-02-20T01:50:56.133Z,5.88
2023-02-20T01:53:23.351Z,6.50
2023-02-20T01:55:58.740Z,5.50
2023-02-20T01:58:31.116Z,5.20
2023-02-20T02:00:58.046Z,4.88
2023-02-20T02:03:26.285Z,4.63
2023-02-20T02:05:58.412Z,4.43
2023-02-20T02:08:25.721Z,4.05
2023-02-20T02:11:11.063Z,4.15
2023-02-20T02:13:38.726Z,5.05
2023-02-20T02:16:07.957Z,5.30
2023-02-20T02:18:48.521Z,7.97
2023-02-20T02:21:20.773Z,8.48
2023-02-20T02:24:09.921Z,9.50
2023-02-20T02:26:39.251Z,10.63
2023-02-20T02:29:29.433Z,10.07
2023-02-20T02:32:05.596Z,11.20
2023-02-20T02:34:31.965Z,11.10
2023-02-20T02:37:19.114Z,11.50
2023-02-20T02:39:51.725Z,11.13
2023-02-20T02:42:32.903Z,12.07
2023-02-20T02:45:07.948Z,12.20
2023-02-20T02:47:53.802Z,12.10
2023-02-20T02:50:32.593Z,11.48
2023-02-20T02:52:59.149Z,11.73
2023-02-20T02:55:29.857Z,12.57
2023-02-20T02:57:56.246Z,12.93
2023-02-20T03:00:24.953Z,11.93
2023-02-20T03:02:51.467Z,12.93
2023-02-20T03:05:20.306Z,13.07
2023-02-20T03:07:48.323Z,12.88
2023-02-20T03:10:20.759Z,12.20
2023-02-20T03:12:50.525Z,12.18
2023-02-20T03:15:35.923Z,12.18
2023-02-20T03:18:06.013Z,11.93
2023-02-20T03:20:32.437Z,12.90
2023-02-20T03:23:00.333Z,12.55
2023-02-20T03:25:55.878Z,10.93
2023-02-20T03:28:28.297Z,11.77
2023-02-20T03:30:54.666Z,12.25
2023-02-20T03:34:01.346Z,12.35
2023-02-20T03:36:51.909Z,11.77
2023-02-20T03:39:39.243Z,10.80
2023-02-20T03:42:26.703Z,10.13
2023-02-20T03:44:53.418Z,10.80
2023-02-20T03:47:22.255Z,10.65
2023-02-20T03:49:50.098Z,9.85
2023-02-20T03:52:17.120Z,10.23
2023-02-20T03:54:43.549Z,9.80
2023-02-20T03:57:12.211Z,10.90
2023-02-20T03:59:48.457Z,9.23
2023-02-20T04:02:22.494Z,9.13
2023-02-20T04:04:50.979Z,9.13
2023-02-20T04:07:21.328Z,9.98
2023-02-20T04:09:47.838Z,8.80
2023-02-20T04:12:16.971Z,9.27
2023-02-20T04:14:46.218Z,8.82
2023-02-20T04:17:14.810Z,8.88
2023-02-20T04:19:41.373Z,7.90
2023-02-20T04:22:11.002Z,7.80
2023-02-20T04:24:40.371Z,7.90
2023-02-20T04:27:07.630Z,8.25
2023-02-20T04:29:34.105Z,8.48
2023-02-20T04:32:00.504Z,8.18
2023-02-20T04:34:27.131Z,7.60
2023-02-20T04:36:58.034Z,7.68
2023-02-20T04:39:24.617Z,7.30
2023-02-20T04:41:50.943Z,7.22
2023-02-20T04:44:32.465Z,7.45
2023-02-20T04:46:59.370Z,7.30
2023-02-20T04:49:25.902Z,6.30
2023-02-20T04:51:52.470Z,6.10
2023-02-20T04:54:18.987Z,6.40
2023-02-20T04:56:45.434Z,6.28
2023-02-20T04:59:11.782Z,6.25
2023-02-20T05:01:38.353Z,6.03
2023-02-20T05:04:05.044Z,5.95
2023-02-20T05:06:31.402Z,6.30
2023-02-20T05:08:57.991Z,6.28
2023-02-20T05:11:24.650Z,6.18
2023-02-20T05:13:50.978Z,6.05
2023-02-20T05:16:17.406Z,5.95
2023-02-20T05:18:43.926Z,5.85
2023-02-20T05:21:32.073Z,6.13
2023-02-20T05:23:58.505Z,6.22
2023-02-20T05:26:24.884Z,6.05
2023-02-20T05:28:51.274Z,6.32
2023-02-20T05:31:18.171Z,6.85
2023-02-20T05:33:44.713Z,6.90
2023-02-20T05:36:12.614Z,6.68
2023-02-20T05:38:41.334Z,7.13
2023-02-20T05:41:08.216Z,6.30
2023-02-20T05:43:34.599Z,7.07
2023-02-20T05:46:01.035Z,6.43
2023-02-20T05:48:27.399Z,6.93
2023-02-20T05:50:54.783Z,7.15
2023-02-20T05:53:21.147Z,7.07
2023-02-20T05:55:47.575Z,7.07
2023-02-20T05:58:14.002Z,7.18
2023-02-20T06:00:40.459Z,6.75
2023-02-20T06:03:07.802Z,7.43
2023-02-20T06:05:34.179Z,7.35
2023-02-20T06:08:00.577Z,7.28
2023-02-20T06:10:27.038Z,7.65
2023-02-20T06:12:53.424Z,6.65
2023-02-20T06:15:19.764Z,7.43
2023-02-20T06:17:46.158Z,7.05
2023-02-20T06:20:12.794Z,7.72
2023-02-20T06:22:39.128Z,7.53
2023-02-20T06:25:06.372Z,7.30
2023-02-20T06:27:32.663Z,7.13
2023-02-20T06:29:59.041Z,7.15
2023-02-20T06:32:25.484Z,7.03
2023-02-20T06:34:52.079Z,7.35
2023-02-20T06:37:18.503Z,6.72
2023-02-20T06:39:46.776Z,6.72
2023-02-20T06:42:13.205Z,7.35
2023-02-20T06:44:39.955Z,7.40
2023-02-20T06:47:09.014Z,7.53
2023-02-20T06:49:38.692Z,6.78
2023-02-20T06:52:06.260Z,6.80
2023-02-20T06:54:33.908Z,7.70
2023-02-20T06:57:00.647Z,6.47
2023-02-20T06:59:27.040Z,6.47
2023-02-20T07:01:53.431Z,6.78
2023-02-20T07:04:20.952Z,7.10
2023-02-20T07:06:47.429Z,6.75
2023-02-20T07:09:14.456Z,7.15
2023-02-20T07:11:41.115Z,7.50
2023-02-20T07:14:07.532Z,8.23
2023-02-20T07:16:33.933Z,7.63
2023-02-20T07:19:00.334Z,7.40
2023-02-20T07:21:26.717Z,8.07
2023-02-20T07:23:53.540Z,8.23
2023-02-20T07:26:20.892Z,8.75
2023-02-20T07:28:47.697Z,8.40
2023-02-20T07:31:14.208Z,8.82
2023-02-20T07:33:42.950Z,9.07
2023-02-20T07:36:13.427Z,8.85
2023-02-20T07:38:40.036Z,8.30
2023-02-20T07:41:06.703Z,9.38
2023-02-20T07:43:33.101Z,9.02
2023-02-20T07:45:59.641Z,8.90
2023-02-20T07:48:26.055Z,8.48
2023-02-20T07:50:52.830Z,8.98
2023-02-20T07:53:20.159Z,8.85
2023-02-20T07:55:46.527Z,8.07
2023-02-20T07:58:12.901Z,8.57
2023-02-20T08:00:39.313Z,8.20
2023-02-20T08:03:05.666Z,7.78
2023-02-20T08:05:40.119Z,7.32
2023-02-20T08:08:13.555Z,7.55
2023-02-20T08:10:39.936Z,7.10
2023-02-20T08:13:06.450Z,6.85
2023-02-20T08:15:32.820Z,6.25
2023-02-20T08:17:59.125Z,5.90
2023-02-20T08:20:25.551Z,5.65
2023-02-20T08:22:53.188Z,6.13
2023-02-20T08:25:19.703Z,5.55
2023-02-20T08:27:48.133Z,5.57
2023-02-20T08:30:16.732Z,4.75
2023-02-20T08:32:43.230Z,4.63
2023-02-20T08:35:09.784Z,5.63
2023-02-20T08:37:36.121Z,4.97
2023-02-20T08:40:06.889Z,4.50
2023-02-20T08:42:34.036Z,4.57
2023-02-20T08:45:00.825Z,4.78
2023-02-20T08:47:27.264Z,4.35
2023-02-20T08:49:53.579Z,4.22
2023-02-20T08:52:19.998Z,4.20
2023-02-20T08:54:49.636Z,4.43
2023-02-20T08:57:16.731Z,4.07
2023-02-20T08:59:43.203Z,3.90
2023-02-20T09:02:20.097Z,4.00
2023-02-20T09:04:46.734Z,3.70
2023-02-20T09:07:13.547Z,4.22
2023-02-20T09:09:39.994Z,3.42
2023-02-20T09:12:07.165Z,4.93
2023-02-20T09:14:34.048Z,4.15
2023-02-20T09:17:00.559Z,3.63
2023-02-20T09:19:27.032Z,3.78
2023-02-20T09:21:53.421Z,3.75
2023-02-20T09:24:19.850Z,3.88
2023-02-20T09:26:46.156Z,3.58
2023-02-20T09:29:12.538Z,3.90
2023-02-20T09:31:39.052Z,3.53
2023-02-20T09:34:05.482Z,3.22
2023-02-20T09:36:31.866Z,3.55
2023-02-20T09:38:58.312Z,3.55
2023-02-20T09:41:30.488Z,3.72
2023-02-20T09:44:03.406Z,3.20
2023-02-20T09:46:30.084Z,3.00
2023-02-20T09:49:28.880Z,3.50
2023-02-20T09:52:00.565Z,3.47
2023-02-20T09:54:37.342Z,3.20
2023-02-20T09:57:06.372Z,2.92
2023-02-20T09:59:32.682Z,3.38
2023-02-20T10:02:03.362Z,2.50
2023-02-20T10:05:04.472Z,2.80
2023-02-20T10:07:32.938Z,2.67
2023-02-20T10:10:00.394Z,2.83
2023-02-20T10:12:35.710Z,2.72
2023-02-20T10:15:08.193Z,2.60
2023-02-20T10:17:43.929Z,2.10
2023-02-20T10:20:20.522Z,2.40
2023-02-20T10:22:56.037Z,2.80
2023-02-20T10:25:29.423Z,2.40
2023-02-20T10:28:07.407Z,2.55
2023-02-20T10:30:36.959Z,2.70
2023-02-20T10:33:14.503Z,2.30
2023-02-20T10:35:43.242Z,2.60
2023-02-20T10:38:12.404Z,2.53
2023-02-20T10:40:49.680Z,2.20
2023-02-20T10:43:25.098Z,1.90
2023-02-20T10:45:58.333Z,2.15
2023-02-20T10:48:26.720Z,2.25
2023-02-20T10:50:55.836Z,2.28
2023-02-20T10:53:34.617Z,2.20
2023-02-20T10:56:10.877Z,2.05
2023-02-20T10:59:00.657Z,2.15
2023-02-20T11:01:27.444Z,1.95
2023-02-20T11:04:02.776Z,1.35
2023-02-20T11:06:40.343Z,1.67
2023-02-20T11:09:08.603Z,1.95
2023-02-20T11:11:36.338Z,1.38
2023-02-20T11:14:09.756Z,1.80
2023-02-20T11:16:39.855Z,1.70
2023-02-20T11:19:08.954Z,1.95
2023-02-20T11:21:40.140Z,1.70
2023-02-20T11:24:20.231Z,1.30
2023-02-20T11:26:48.641Z,1.42
2023-02-20T11:29:16.676Z,1.55
2023-02-20T11:31:49.029Z,1.35
2023-02-20T11:34:26.187Z,1.30
2023-02-20T11:36:54.011Z,1.60
2023-02-20T11:39:22.263Z,1.60
2023-02-20T11:41:50.694Z,1.50
2023-02-20T11:44:17.133Z,1.38
2023-02-20T11:46:44.145Z,1.23
2023-02-20T11:49:12.054Z,1.33
2023-02-20T11:51:45.739Z,1.60
2023-02-20T11:54:17.245Z,1.33
2023-02-20T11:56:59.035Z,1.20
2023-02-20T11:59:27.064Z,1.30
2023-02-20T12:02:00.894Z,1.60
2023-02-20T12:04:28.006Z,1.30
2023-02-20T12:06:54.448Z,1.52
2023-02-20T12:09:23.000Z,1.60
2023-02-20T12:11:51.034Z,1.52
2023-02-20T12:14:17.798Z,1.50
2023-02-20T12:16:45.325Z,1.50
2023-02-20T12:19:17.900Z,1.25
2023-02-20T12:21:47.442Z,1.33
2023-02-20T12:24:23.976Z,1.20
2023-02-20T12:26:54.912Z,1.27
2023-02-20T12:29:40.235Z,1.40
2023-02-20T12:32:13.075Z,1.30
2023-02-20T12:34:59.802Z,1.52
2023-02-20T12:37:26.263Z,1.38
2023-02-20T12:39:53.483Z,1.27
2023-02-20T12:42:43.765Z,1.17
2023-02-20T12:45:22.549Z,1.17
2023-02-20T12:47:51.639Z,1.10
2023-02-20T12:50:24.234Z,0.93
2023-02-20T12:52:53.781Z,1.30
2023-02-20T12:55:26.216Z,1.13
2023-02-20T12:58:15.324Z,1.20
2023-02-20T13:00:44.351Z,1.15
2023-02-20T13:03:10.761Z,1.15
2023-02-20T13:05:41.815Z,1.25
2023-02-20T13:08:21.057Z,0.95
2023-02-20T13:10:52.578Z,1.10
2023-02-20T13:13:19.845Z,1.00
2023-02-20T13:15:46.337Z,1.30
2023-02-20T13:18:16.126Z,1.30
2023-02-20T13:21:01.709Z,1.50
2023-02-20T13:23:30.441Z,1.13
2023-02-20T13:25:57.221Z,1.00
2023-02-20T13:28:37.532Z,0.95
2023-02-20T13:31:10.076Z,1.17
2023-02-20T13:33:37.403Z,1.05
2023-02-20T13:36:04.588Z,0.95
2023-02-20T13:38:31.310Z,1.05
2023-02-20T13:41:00.477Z,1.10
2023-02-20T13:43:28.322Z,1.05
2023-02-20T13:46:00.664Z,1.00
2023-02-20T13:48:30.008Z,1.10
2023-02-20T13:51:14.674Z,1.05
2023-02-20T13:53:45.731Z,1.00
2023-02-20T13:56:16.181Z,1.00
2023-02-20T13:58:42.935Z,1.23
2023-02-20T14:01:09.518Z,0.98
2023-02-20T14:03:35.875Z,1.20
2023-02-20T14:06:05.820Z,0.90
2023-02-20T14:08:32.166Z,1.40
2023-02-20T14:11:10.599Z,1.55
2023-02-20T14:13:40.720Z,1.08
2023-02-20T14:16:26.422Z,1.10
2023-02-20T14:18:55.955Z,1.23
2023-02-20T14:21:25.285Z,1.42
2023-02-20T14:23:52.195Z,1.20
2023-02-20T14:26:21.523Z,1.30
2023-02-20T14:28:49.728Z,1.10
2023-02-20T14:31:23.428Z,0.98
2023-02-20T14:33:58.508Z,1.02
2023-02-20T14:37:00.621Z,1.13
2023-02-20T14:39:39.527Z,1.08
2023-02-20T14:42:11.221Z,1.10
2023-02-20T14:44:37.531Z,1.20
2023-02-20T14:47:13.790Z,1.10
2023-02-20T14:49:40.170Z,1.17
2023-02-20T14:52:17.120Z,1.30
2023-02-20T14:54:44.607Z,1.00
2023-02-20T14:57:15.122Z,1.20
2023-02-20T14:59:42.243Z,1.40
2023-02-20T15:02:31.371Z,1.20
2023-02-20T15:05:04.063Z,1.25
2023-02-20T15:07:30.611Z,1.63
2023-02-20T15:10:02.043Z,1.52
2023-02-20T15:12:36.406Z,1.65
2023-02-20T15:15:04.468Z,1.90
2023-02-20T15:17:31.889Z,1.90
2023-02-20T15:19:58.429Z,1.52
2023-02-20T15:22:26.331Z,1.65
2023-02-20T15:24:53.389Z,1.48
2023-02-20T15:27:24.491Z,1.40
2023-02-20T15:30:09.677Z,1.55
2023-02-20T15:32:36.106Z,1.50
2023-02-20T15:35:02.535Z,1.20
2023-02-20T15:37:38.169Z,1.50
2023-02-20T15:40:18.791Z,1.42
2023-02-20T15:45:14.627Z,1.38
2023-02-20T15:47:41.847Z,1.67
2023-02-20T15:50:11.725Z,1.95
2023-02-20T15:52:38.089Z,1.30
2023-02-20T15:55:04.772Z,1.60
2023-02-20T15:57:31.238Z,1.30
2023-02-20T15:59:58.362Z,1.70
2023-02-20T16:02:27.685Z,1.50
2023-02-20T16:04:54.374Z,1.80
2023-02-20T16:07:21.114Z,1.38
2023-02-20T16:09:47.555Z,1.30
2023-02-20T16:12:19.170Z,1.60
2023-02-20T16:14:45.542Z,1.33
2023-02-20T16:17:18.550Z,1.80
2023-02-20T16:19:44.891Z,1.60
2023-02-20T16:22:11.930Z,1.50
2023-02-20T16:24:40.298Z,1.40
2023-02-20T16:27:21.807Z,1.63
2023-02-20T16:29:50.296Z,1.40
2023-02-20T16:32:18.754Z,1.42
2023-02-20T16:34:46.167Z,1.70
2023-02-20T16:37:13.824Z,1.70
2023-02-20T16:39:40.301Z,1.70
2023-02-20T16:42:17.828Z,2.10
2023-02-20T16:44:45.139Z,1.52
2023-02-20T16:47:15.999Z,1.77
2023-02-20T16:49:42.690Z,1.63
2023-02-20T16:52:17.785Z,1.65
2023-02-20T16:54:45.455Z,1.80
2023-02-20T16:57:12.714Z,1.95
2023-02-20T16:59:39.173Z,1.85
2023-02-20T17:02:05.822Z,2.38
2023-02-20T17:04:32.611Z,1.90
2023-02-20T17:06:59.110Z,2.42
2023-02-20T17:09:31.025Z,1.73
2023-02-20T17:12:09.266Z,1.83
2023-02-20T17:14:35.785Z,1.90
2023-02-20T17:17:02.752Z,1.70
2023-02-20T17:19:29.377Z,1.67
2023-02-20T17:21:55.833Z,1.70
2023-02-20T17:24:22.140Z,1.60
2023-02-20T17:26:48.747Z,1.70
2023-02-20T17:29:15.187Z,1.80
2023-02-20T17:31:41.831Z,1.60
2023-02-20T17:34:08.765Z,1.40
2023-02-20T17:36:35.393Z,1.80
2023-02-20T17:39:01.815Z,1.60
2023-02-20T17:41:28.251Z,1.70
2023-02-20T17:43:54.625Z,1.90
2023-02-20T17:46:21.527Z,1.58
2023-02-20T17:48:48.171Z,1.85
2023-02-20T17:51:18.825Z,2.10
2023-02-20T17:53:45.207Z,1.80
2023-02-20T17:56:15.843Z,1.48
2023-02-20T17:58:42.971Z,1.70
2023-02-20T18:01:09.643Z,1.77
2023-02-20T18:03:36.904Z,1.73
2023-02-20T18:06:03.524Z,1.98
2023-02-20T18:08:29.912Z,2.00
2023-02-20T18:10:56.775Z,1.90
2023-02-20T18:13:23.232Z,2.10
2023-02-20T18:15:49.603Z,1.90
2023-02-20T18:18:16.038Z,1.83
2023-02-20T18:20:42.528Z,2.15
2023-02-20T18:23:09.728Z,1.60
2023-02-20T18:25:41.075Z,1.90
2023-02-20T18:28:08.023Z,1.63
2023-02-20T18:30:34.677Z,2.38
2023-02-20T18:33:01.206Z,1.95
2023-02-20T18:35:27.675Z,2.30
2023-02-20T18:37:54.149Z,1.90
2023-02-20T18:40:20.549Z,2.25
2023-02-20T18:42:46.967Z,2.03
2023-02-20T18:45:13.500Z,1.98
2023-02-20T18:47:40.180Z,2.38
2023-02-20T18:50:06.723Z,2.00
2023-02-20T18:52:33.061Z,2.10
2023-02-20T18:55:00.818Z,2.00
2023-02-20T18:57:27.472Z,2.00
2023-02-20T18:59:53.831Z,1.75
2023-02-20T19:02:20.808Z,2.25
2023-02-20T19:04:48.846Z,1.90
2023-02-20T19:07:15.348Z,2.10
2023-02-20T19:09:43.280Z,1.95
2023-02-20T19:12:09.646Z,1.60
2023-02-20T19:14:36.170Z,2.00
2023-02-20T19:17:03.175Z,2.15
2023-02-20T19:19:30.761Z,1.90
2023-02-20T19:21:57.770Z,2.40
2023-02-20T19:24:24.602Z,2.60
2023-02-20T19:26:51.099Z,2.38
2023-02-20T19:29:17.493Z,2.53
2023-02-20T19:31:44.148Z,2.58
2023-02-20T19:34:10.630Z,2.40
2023-02-20T19:36:41.031Z,2.17
2023-02-20T19:39:12.684Z,2.10
2023-02-20T19:41:39.476Z,1.80
2023-02-20T19:44:06.476Z,2.38
2023-02-20T19:46:33.247Z,2.33
2023-02-20T19:48:59.576Z,2.17
2023-02-20T19:51:26.036Z,1.92
2023-02-20T19:53:52.523Z,2.10
2023-02-20T19:56:18.923Z,2.08
2023-02-20T19:58:46.100Z,1.90
2023-02-20T20:01:12.687Z,2.00
2023-02-20T20:03:39.170Z,2.03
2023-02-20T20:06:09.794Z,1.90
2023-02-20T20:08:40.187Z,2.10
2023-02-20T20:11:07.101Z,2.35
2023-02-20T20:13:33.490Z,2.10
2023-02-20T20:16:00.102Z,2.00
2023-02-20T20:18:26.442Z,1.90
2023-02-20T20:20:52.873Z,2.05
2023-02-20T20:23:19.752Z,2.03
2023-02-20T20:25:46.151Z,1.90
2023-02-20T20:28:12.921Z,2.42
2023-02-20T20:30:39.449Z,1.95
2023-02-20T20:33:06.451Z,1.90
2023-02-20T20:35:33.084Z,2.03
2023-02-20T20:38:00.513Z,1.83
2023-02-20T20:40:27.330Z,2.10
2023-02-20T20:42:54.108Z,2.00
2023-02-20T20:45:21.275Z,2.00
2023-02-20T20:47:48.377Z,2.10
2023-02-20T20:50:19.716Z,1.80
2023-02-20T20:52:46.043Z,1.50
2023-02-20T20:55:12.750Z,1.65
2023-02-20T20:57:41.206Z,2.08
2023-02-20T21:00:09.278Z,2.10
2023-02-20T21:02:35.798Z,2.22
2023-02-20T21:05:11.222Z,1.92
2023-02-20T21:10:04.444Z,1.95
2023-02-20T21:12:30.920Z,2.40
2023-02-20T21:14:57.424Z,2.38
2023-02-20T21:17:23.927Z,2.30
2023-02-20T21:19:50.579Z,2.65
2023-02-20T21:22:16.927Z,2.50
2023-02-20T21:24:44.501Z,2.65
2023-02-20T21:27:11.000Z,2.50
2023-02-20T21:29:37.350Z,2.78
2023-02-20T21:32:03.805Z,2.58
2023-02-20T21:34:30.179Z,2.65
2023-02-20T21:36:57.090Z,2.65
2023-02-20T21:39:24.197Z,2.47
2023-02-20T21:42:10.060Z,2.55
2023-02-20T21:44:39.053Z,2.30
2023-02-20T21:47:07.837Z,2.53
2023-02-20T21:49:35.766Z,2.60
2023-02-20T21:52:03.169Z,2.95
2023-02-20T21:54:30.868Z,2.60
2023-02-20T21:56:57.273Z,2.47
2023-02-20T21:59:23.628Z,2.53
2023-02-20T22:01:50.019Z,3.03
2023-02-20T22:04:16.376Z,3.00
2023-02-20T22:06:44.306Z,2.95
2023-02-20T22:09:32.641Z,3.03
2023-02-20T22:12:17.584Z,2.80
2023-02-20T22:15:02.411Z,3.40
2023-02-20T22:17:47.109Z,3.45
2023-02-20T22:20:32.120Z,3.75
2023-02-20T22:23:17.228Z,4.18
2023-02-20T22:26:02.059Z,4.18
2023-02-20T22:28:47.328Z,4.35
2023-02-20T22:31:32.252Z,4.43
2023-02-20T22:34:17.604Z,4.57
2023-02-20T22:37:02.221Z,3.63
2023-02-20T22:39:47.465Z,4.97
2023-02-20T22:42:35.223Z,4.47
2023-02-20T22:45:20.804Z,4.50
2023-02-20T22:48:05.678Z,3.90
2023-02-20T22:50:50.493Z,3.60
2023-02-20T22:53:35.355Z,4.07
2023-02-20T22:56:20.460Z,3.97
2023-02-20T22:59:05.218Z,4.43
2023-02-20T23:01:50.110Z,3.65
2023-02-20T23:04:34.854Z,4.20
2023-02-20T23:07:19.783Z,4.53
2023-02-20T23:10:04.552Z,4.75
2023-02-20T23:12:49.350Z,4.85
2023-02-20T23:15:34.297Z,4.82
2023-02-20T23:18:19.211Z,5.53
2023-02-20T23:21:05.785Z,4.75
2023-02-20T23:23:50.708Z,4.25
2023-02-20T23:26:35.565Z,3.55
2023-02-20T23:29:20.319Z,4.05
2023-02-20T23:32:08.591Z,3.65
2023-02-20T23:34:53.963Z,3.28
2023-02-20T23:37:38.828Z,3.65
2023-02-20T23:40:36.102Z,3.03
2023-02-20T23:43:22.456Z,2.83
2023-02-20T23:46:07.337Z,3.00
2023-02-20T23:48:52.556Z,2.78
2023-02-20T23:51:37.510Z,2.53
2023-02-20T23:54:22.890Z,2.72
2023-02-20T23:57:07.993Z,2.58
2023-02-20T23:59:52.934Z,2.97
